Time;durP1;ratioP1;P1;durP2;ratioP2;P2;SDS_P1;SDS_P2;PMS_P1;PMS_P2;Temp;Humidity;BMP_temperature;BMP_pressure;BME280_temperature;BME280_humidity;BME280_pressure;Samples;Min_cycle;Max_cycle;Signal;HPM_P1;HPM_P2
2022/11/12 00:02:30;;;;;;;57.50;42.07;;;;;;;;;;5265622;28;20029;-83
2022/11/12 00:05:01;;;;;;;54.38;40.95;;;;;;;;;;5266130;28;20314;-84
2022/11/12 00:07:33;;;;;;;54.05;38.78;;;;;;;;;;5269655;28;20014;-82
2022/11/12 00:10:04;;;;;;;52.15;38.33;;;;;;;;;;5271264;28;20022;-83
2022/11/12 00:12:35;;;;;;;50.67;39.75;;;;;;;;;;5271428;28;20022;-83
2022/11/12 00:15:07;;;;;;;56.15;39.17;;;;;;;;;;5271408;28;20037;-83
2022/11/12 00:17:38;;;;;;;54.65;41.88;;;;;;;;;;5272586;28;20029;-82
2022/11/12 00:20:09;;;;;;;53.72;39.88;;;;;;;;;;5270082;28;20382;-83
2022/11/12 00:22:41;;;;;;;51.67;40.33;;;;;;;;;;5269991;28;20450;-83
2022/11/12 00:25:12;;;;;;;55.42;41.53;;;;;;;;;;5268763;28;20382;-82
2022/11/12 00:27:43;;;;;;;57.30;40.95;;;;;;;;;;5287125;28;20029;-83
2022/11/12 00:30:14;;;;;;;53.40;40.33;;;;;;;;;;5286017;28;20100;-83
2022/11/12 00:32:46;;;;;;;54.20;41.20;;;;;;;;;;5268559;28;20021;-83
2022/11/12 00:35:17;;;;;;;51.75;40.22;;;;;;;;;;5288539;28;20021;-83
2022/11/12 00:37:52;;;;;;;53.40;40.60;;;;;;;;;;5292551;28;20059;-83
2022/11/12 00:40:26;;;;;;;53.50;40.03;;;;;;;;;;5297296;28;20292;-83
2022/11/12 00:42:58;;;;;;;54.67;41.80;;;;;;;;;;5275292;28;20075;-83
2022/11/12 00:45:29;;;;;;;52.00;42.72;;;;;;;;;;5292325;28;20017;-82
2022/11/12 00:48:00;;;;;;;58.37;42.20;;;;;;;;;;5286701;28;20056;-83
2022/11/12 00:50:31;;;;;;;57.03;43.13;;;;;;;;;;5285232;28;20276;-83
2022/11/12 00:53:02;;;;;;;58.80;44.23;;;;;;;;;;5285583;28;20096;-83
2022/11/12 00:55:34;;;;;;;57.23;43.57;;;;;;;;;;5267099;28;20632;-83
2022/11/12 00:58:05;;;;;;;56.25;43.20;;;;;;;;;;5285347;28;20333;-83
2022/11/12 01:00:36;;;;;;;57.20;42.03;;;;;;;;;;5284929;28;20028;-83
2022/11/12 01:03:07;;;;;;;53.83;42.20;;;;;;;;;;5285125;28;20264;-83
2022/11/12 01:05:38;;;;;;;53.13;41.28;;;;;;;;;;5285118;28;20260;-83
2022/11/12 01:08:10;;;;;;;49.63;39.83;;;;;;;;;;5267053;28;20029;-83
2022/11/12 01:10:41;;;;;;;52.70;40.15;;;;;;;;;;5285173;28;20013;-83
2022/11/12 01:13:13;;;;;;;50.93;41.00;;;;;;;;;;5285425;28;20036;-83
2022/11/12 01:15:44;;;;;;;55.40;41.03;;;;;;;;;;5266295;28;20358;-83
2022/11/12 01:18:15;;;;;;;51.50;40.20;;;;;;;;;;5285050;28;20028;-82
2022/11/12 01:20:46;;;;;;;50.65;38.40;;;;;;;;;;5266899;28;20025;-83
2022/11/12 01:23:17;;;;;;;54.45;39.03;;;;;;;;;;5284687;28;20043;-83
2022/11/12 01:25:49;;;;;;;49.87;37.93;;;;;;;;;;5284457;28;20029;-83
2022/11/12 01:28:20;;;;;;;55.65;39.90;;;;;;;;;;5284575;28;20291;-83
2022/11/12 01:30:51;;;;;;;54.85;40.28;;;;;;;;;;5284576;28;20029;-83
2022/11/12 01:33:22;;;;;;;44.35;33.25;;;;;;;;;;5266112;28;20036;-83
2022/11/12 01:35:57;;;;;;;48.47;35.87;;;;;;;;;;5284213;28;20028;-83
2022/11/12 01:38:28;;;;;;;49.50;36.85;;;;;;;;;;5284410;28;20263;-83
2022/11/12 01:40:59;;;;;;;44.87;35.07;;;;;;;;;;5284012;28;20378;-83
2022/11/12 01:43:30;;;;;;;44.83;34.90;;;;;;;;;;5264874;28;20338;-83
2022/11/12 01:46:03;;;;;;;44.35;33.58;;;;;;;;;;5284411;28;20373;-83
2022/11/12 01:48:40;;;;;;;39.28;30.45;;;;;;;;;;5284245;28;20052;-83
2022/11/12 01:51:12;;;;;;;132.75;36.78;;;;;;;;;;5284314;28;20024;-83
2022/11/12 01:53:45;;;;;;;45.38;33.50;;;;;;;;;;5284675;28;20025;-83
2022/11/12 01:56:17;;;;;;;40.00;32.55;;;;;;;;;;5262771;28;20025;-83
2022/11/12 01:58:51;;;;;;;45.58;33.85;;;;;;;;;;5263540;28;20028;-83
2022/11/12 02:01:22;;;;;;;43.95;33.33;;;;;;;;;;5278520;28;20014;-83
2022/11/12 02:03:54;;;;;;;44.33;35.43;;;;;;;;;;5283984;28;20563;-83
2022/11/12 02:06:25;;;;;;;46.97;35.60;;;;;;;;;;5267298;28;20306;-84
2022/11/12 02:08:56;;;;;;;47.28;35.53;;;;;;;;;;5283924;28;20538;-83
2022/11/12 02:11:27;;;;;;;49.10;36.17;;;;;;;;;;5284775;28;20541;-84
2022/11/12 02:14:01;;;;;;;49.63;37.03;;;;;;;;;;5284858;28;20033;-83
2022/11/12 02:16:34;;;;;;;48.90;36.72;;;;;;;;;;5289985;28;20025;-84
2022/11/12 02:19:07;;;;;;;47.42;36.42;;;;;;;;;;5290882;28;20509;-82
2022/11/12 02:21:38;;;;;;;46.55;37.05;;;;;;;;;;5277210;28;20024;-83
2022/11/12 02:24:12;;;;;;;48.05;36.45;;;;;;;;;;5298982;28;20041;-83
2022/11/12 02:26:46;;;;;;;49.10;36.13;;;;;;;;;;5282285;28;20013;-83
2022/11/12 02:29:17;;;;;;;50.95;35.95;;;;;;;;;;5284984;28;20005;-83
2022/11/12 02:31:48;;;;;;;49.53;37.20;;;;;;;;;;5273245;28;20121;-84
2022/11/12 02:34:19;;;;;;;47.97;35.47;;;;;;;;;;5262650;28;20272;-83
2022/11/12 02:36:51;;;;;;;50.60;35.72;;;;;;;;;;5262545;28;20277;-84
2022/11/12 02:39:22;;;;;;;49.30;35.45;;;;;;;;;;5262335;28;20063;-83
2022/11/12 02:41:56;;;;;;;41.90;33.75;;;;;;;;;;5244348;28;20049;-83
2022/11/12 02:44:35;;;;;;;45.72;35.08;;;;;;;;;;5261859;28;20045;-83
2022/11/12 02:47:06;;;;;;;44.10;33.28;;;;;;;;;;5262899;28;20061;-83
2022/11/12 02:49:40;;;;;;;41.60;32.43;;;;;;;;;;5261918;28;20053;-82
2022/11/12 02:52:11;;;;;;;46.85;33.58;;;;;;;;;;5263470;28;20616;-82
2022/11/12 02:54:42;;;;;;;42.73;32.40;;;;;;;;;;5260903;28;20030;-82
2022/11/12 02:57:14;;;;;;;44.80;32.50;;;;;;;;;;5262990;28;20307;-83
2022/11/12 02:59:45;;;;;;;46.65;32.85;;;;;;;;;;5263111;28;20048;-82
2022/11/12 03:02:16;;;;;;;43.57;31.67;;;;;;;;;;5282746;28;20374;-83
2022/11/12 03:04:47;;;;;;;42.53;30.40;;;;;;;;;;5283410;28;20283;-83
2022/11/12 03:07:18;;;;;;;47.40;31.05;;;;;;;;;;5283212;28;20308;-82
2022/11/12 03:09:50;;;;;;;42.72;31.80;;;;;;;;;;5265279;28;20033;-82
2022/11/12 03:12:21;;;;;;;36.22;26.05;;;;;;;;;;5264587;28;20362;-82
2022/11/12 03:14:52;;;;;;;120.50;34.87;;;;;;;;;;5283750;28;20033;-82
2022/11/12 03:17:23;;;;;;;39.17;28.80;;;;;;;;;;5283453;28;20310;-84
2022/11/12 03:19:55;;;;;;;40.97;28.05;;;;;;;;;;5283150;28;20244;-83
2022/11/12 03:22:26;;;;;;;39.15;28.50;;;;;;;;;;5282744;28;20027;-83
2022/11/12 03:24:57;;;;;;;35.60;25.23;;;;;;;;;;5264733;28;20453;-83
2022/11/12 03:27:28;;;;;;;39.63;27.60;;;;;;;;;;5283682;28;20624;-83
2022/11/12 03:30:00;;;;;;;39.43;28.37;;;;;;;;;;5265788;28;20029;-84
2022/11/12 03:32:31;;;;;;;37.60;27.85;;;;;;;;;;5282737;28;20752;-83
2022/11/12 03:35:02;;;;;;;37.90;27.37;;;;;;;;;;5283590;28;20149;-84
2022/11/12 03:37:33;;;;;;;37.00;27.77;;;;;;;;;;5264664;28;20315;-83
2022/11/12 03:40:05;;;;;;;35.47;26.60;;;;;;;;;;5283406;28;20120;-83
2022/11/12 03:42:36;;;;;;;39.72;27.48;;;;;;;;;;5264469;28;20609;-83
2022/11/12 03:45:07;;;;;;;39.67;26.13;;;;;;;;;;5283241;28;20350;-83
2022/11/12 03:47:40;;;;;;;38.20;26.30;;;;;;;;;;5282664;28;20095;-83
2022/11/12 03:50:12;;;;;;;34.10;24.98;;;;;;;;;;5282590;28;20317;-83
2022/11/12 03:52:44;;;;;;;36.40;25.10;;;;;;;;;;5282751;28;20417;-83
2022/11/12 03:55:17;;;;;;;38.75;26.80;;;;;;;;;;5255424;28;20037;-83
2022/11/12 03:57:48;;;;;;;36.53;24.02;;;;;;;;;;5261685;28;20084;-83
2022/11/12 04:00:20;;;;;;;36.42;25.10;;;;;;;;;;5270850;28;20033;-83
2022/11/12 04:02:52;;;;;;;38.75;25.65;;;;;;;;;;5266194;28;20085;-83
2022/11/12 04:08:36;;;;;;;34.90;25.25;;;;;;;;;;5266367;28;20026;-84
2022/11/12 04:11:07;;;;;;;36.45;23.67;;;;;;;;;;5267383;28;20036;-83
2022/11/12 04:13:40;;;;;;;34.25;23.65;;;;;;;;;;5265405;28;20018;-84
2022/11/12 04:22:02;;;;;;;29.02;22.25;;;;;;;;;;5266209;28;20041;-83
2022/11/12 04:27:28;;;;;;;34.15;21.85;;;;;;;;;;5264399;28;20041;-83
2022/11/12 04:30:15;;;;;;;30.80;21.90;;;;;;;;;;5265027;28;20032;-83
2022/11/12 04:32:49;;;;;;;31.25;21.35;;;;;;;;;;5264993;28;20025;-83
2022/11/12 04:35:21;;;;;;;29.60;20.55;;;;;;;;;;5264937;28;20025;-83
2022/11/12 04:37:52;;;;;;;29.90;21.58;;;;;;;;;;5264436;28;20385;-83
2022/11/12 04:46:04;;;;;;;24.75;17.15;;;;;;;;;;5263975;28;20461;-83
2022/11/12 04:48:36;;;;;;;30.60;20.92;;;;;;;;;;5263738;28;20153;-83
2022/11/12 04:52:03;;;;;;;27.20;20.15;;;;;;;;;;5263153;28;20437;-83
2022/11/12 04:53:58;;;;;;;29.23;20.33;;;;;;;;;;5263739;28;20036;-83
2022/11/12 04:56:29;;;;;;;30.03;20.17;;;;;;;;;;5264285;28;20390;-83
2022/11/12 04:59:00;;;;;;;27.90;20.20;;;;;;;;;;5264056;28;20280;-83
2022/11/12 05:01:31;;;;;;;29.50;20.20;;;;;;;;;;5264047;28;20287;-83
2022/11/12 05:04:03;;;;;;;29.43;20.53;;;;;;;;;;5263819;28;20284;-83
2022/11/12 05:06:52;;;;;;;28.73;20.65;;;;;;;;;;5262560;28;20633;-83
2022/11/12 05:09:25;;;;;;;33.13;21.38;;;;;;;;;;5263797;28;20112;-83
2022/11/12 05:11:56;;;;;;;26.42;18.70;;;;;;;;;;5262413;28;20030;-83
2022/11/12 05:14:27;;;;;;;31.85;20.73;;;;;;;;;;5263949;28;20484;-83
2022/11/12 05:16:58;;;;;;;28.50;20.58;;;;;;;;;;5281985;28;20018;-83
2022/11/12 05:19:30;;;;;;;28.20;20.83;;;;;;;;;;5266688;28;20397;-82
2022/11/12 05:22:07;;;;;;;29.58;20.63;;;;;;;;;;5285145;28;20017;-82
2022/11/12 05:24:39;;;;;;;29.40;20.55;;;;;;;;;;5265880;28;20033;-82
2022/11/12 05:27:12;;;;;;;29.42;20.70;;;;;;;;;;5266471;28;20074;-83
2022/11/12 05:29:44;;;;;;;28.48;20.63;;;;;;;;;;5284276;28;20496;-82
2022/11/12 05:32:16;;;;;;;31.75;20.95;;;;;;;;;;5282999;28;20029;-82
2022/11/12 05:34:47;;;;;;;26.17;17.50;;;;;;;;;;5284645;28;20029;-82
2022/11/12 05:37:19;;;;;;;30.30;19.25;;;;;;;;;;5284152;28;20017;-82
2022/11/12 05:39:50;;;;;;;24.38;17.55;;;;;;;;;;5284612;28;20040;-82
2022/11/12 05:42:21;;;;;;;28.15;20.27;;;;;;;;;;5265788;28;20478;-82
2022/11/12 05:44:52;;;;;;;29.27;20.20;;;;;;;;;;5283305;28;20072;-82
2022/11/12 05:47:23;;;;;;;29.55;21.05;;;;;;;;;;5283348;28;20045;-82
2022/11/12 05:49:55;;;;;;;30.70;19.03;;;;;;;;;;5284532;28;20025;-82
2022/11/12 05:52:26;;;;;;;29.80;19.95;;;;;;;;;;5265819;28;20272;-82
2022/11/12 05:54:57;;;;;;;29.25;19.65;;;;;;;;;;5277515;28;20109;-82
2022/11/12 05:57:28;;;;;;;24.47;18.23;;;;;;;;;;5262310;28;20017;-82
2022/11/12 05:59:59;;;;;;;32.10;21.00;;;;;;;;;;5267216;28;20283;-82
2022/11/12 06:02:31;;;;;;;28.60;18.33;;;;;;;;;;5283747;28;20280;-82
2022/11/12 06:05:02;;;;;;;28.07;18.97;;;;;;;;;;5265981;28;20379;-82
2022/11/12 06:07:33;;;;;;;28.50;19.65;;;;;;;;;;5265139;28;20279;-82
2022/11/12 06:10:05;;;;;;;31.67;20.42;;;;;;;;;;5284109;28;20044;-84
2022/11/12 06:12:39;;;;;;;31.60;20.08;;;;;;;;;;5283582;28;20041;-83
2022/11/12 06:15:10;;;;;;;30.63;19.05;;;;;;;;;;5265343;28;20033;-83
2022/11/12 06:17:42;;;;;;;29.00;19.65;;;;;;;;;;5265779;28;20495;-83
2022/11/12 06:20:13;;;;;;;30.88;19.13;;;;;;;;;;5284082;28;20094;-83
2022/11/12 06:22:44;;;;;;;30.42;21.23;;;;;;;;;;5265861;28;20028;-83
2022/11/12 06:25:16;;;;;;;28.88;19.70;;;;;;;;;;5265536;28;20483;-83
2022/11/12 06:27:47;;;;;;;29.98;20.58;;;;;;;;;;5246161;28;20057;-83
2022/11/12 06:30:19;;;;;;;33.45;21.13;;;;;;;;;;5260623;28;20032;-84
2022/11/12 06:32:50;;;;;;;32.00;21.38;;;;;;;;;;5244582;28;20029;-83
2022/11/12 06:35:21;;;;;;;30.23;21.70;;;;;;;;;;5244834;28;20574;-83
2022/11/12 06:37:54;;;;;;;30.30;21.38;;;;;;;;;;5262770;28;20088;-83
2022/11/12 06:40:25;;;;;;;31.88;21.63;;;;;;;;;;5262629;28;20136;-82
2022/11/12 06:42:57;;;;;;;31.65;21.33;;;;;;;;;;5262361;28;20033;-82
2022/11/12 06:45:28;;;;;;;34.80;23.23;;;;;;;;;;5262590;28;20072;-81
2022/11/12 06:47:59;;;;;;;32.30;21.67;;;;;;;;;;5244855;28;20049;-81
2022/11/12 06:50:31;;;;;;;30.58;20.90;;;;;;;;;;5260923;28;20284;-82
2022/11/12 06:53:02;;;;;;;30.35;20.77;;;;;;;;;;5262714;28;20049;-82
2022/11/12 06:55:33;;;;;;;31.90;21.40;;;;;;;;;;5262072;28;20017;-82
2022/11/12 06:58:05;;;;;;;32.85;21.90;;;;;;;;;;5262888;28;20307;-83
2022/11/12 07:00:36;;;;;;;33.45;22.58;;;;;;;;;;5253231;28;20463;-82
2022/11/12 07:03:08;;;;;;;35.60;21.97;;;;;;;;;;5283961;28;20409;-82
2022/11/12 07:05:39;;;;;;;36.47;22.52;;;;;;;;;;5284644;28;20325;-81
2022/11/12 07:08:10;;;;;;;34.50;23.08;;;;;;;;;;5284248;28;20032;-82
2022/11/12 07:10:41;;;;;;;35.03;22.70;;;;;;;;;;5283808;28;20029;-82
2022/11/12 07:13:13;;;;;;;34.00;22.33;;;;;;;;;;5285922;28;20591;-82
2022/11/12 07:15:44;;;;;;;32.35;22.10;;;;;;;;;;5264924;28;20014;-82
2022/11/12 07:18:15;;;;;;;34.30;22.23;;;;;;;;;;5264541;28;20034;-82
2022/11/12 07:20:46;;;;;;;35.42;22.58;;;;;;;;;;5266386;28;20280;-82
2022/11/12 07:23:18;;;;;;;35.20;23.17;;;;;;;;;;5279051;28;20034;-81
2022/11/12 07:25:59;;;;;;;34.15;23.60;;;;;;;;;;5274650;28;20021;-83
2022/11/12 07:28:30;;;;;;;37.53;23.83;;;;;;;;;;5274544;28;20025;-83
2022/11/12 07:31:05;;;;;;;33.83;24.00;;;;;;;;;;5264499;28;20029;-83
2022/11/12 07:33:37;;;;;;;35.90;25.27;;;;;;;;;;5260613;28;20374;-83
2022/11/12 07:36:09;;;;;;;132.17;38.63;;;;;;;;;;5262555;28;20030;-83
2022/11/12 07:38:41;;;;;;;524.42;90.10;;;;;;;;;;5262418;28;20359;-83
2022/11/12 07:41:16;;;;;;;68.95;42.67;;;;;;;;;;5262540;28;20017;-83
2022/11/12 07:43:49;;;;;;;54.78;42.03;;;;;;;;;;5265006;28;20025;-83
2022/11/12 07:46:21;;;;;;;53.08;39.63;;;;;;;;;;5265159;28;20045;-83
2022/11/12 07:48:53;;;;;;;52.53;40.05;;;;;;;;;;5264917;28;20111;-83
2022/11/12 07:51:25;;;;;;;46.80;36.75;;;;;;;;;;5264683;28;20018;-83
2022/11/12 07:53:58;;;;;;;35.40;30.42;;;;;;;;;;5265024;28;20033;-83
2022/11/12 07:56:29;;;;;;;31.83;25.13;;;;;;;;;;5282364;28;20481;-84
2022/11/12 07:59:00;;;;;;;24.17;20.43;;;;;;;;;;5286104;28;20033;-83
2022/11/12 08:01:33;;;;;;;21.35;16.08;;;;;;;;;;5285308;28;20264;-83
2022/11/12 08:04:05;;;;;;;17.55;14.68;;;;;;;;;;5285430;28;20442;-83
2022/11/12 08:06:37;;;;;;;17.58;13.85;;;;;;;;;;5285721;28;20053;-83
2022/11/12 08:09:09;;;;;;;17.23;13.13;;;;;;;;;;5285974;28;20055;-83
2022/11/12 08:11:41;;;;;;;17.55;12.80;;;;;;;;;;5285981;28;20029;-83
2022/11/12 08:14:12;;;;;;;15.27;12.50;;;;;;;;;;5286330;28;20032;-83
2022/11/12 08:16:45;;;;;;;15.05;12.23;;;;;;;;;;5267901;28;20420;-84
2022/11/12 08:19:16;;;;;;;13.55;11.18;;;;;;;;;;5267362;28;20035;-82
2022/11/12 08:21:47;;;;;;;13.38;10.45;;;;;;;;;;5286073;28;20029;-82
2022/11/12 08:24:19;;;;;;;14.53;11.27;;;;;;;;;;5285829;28;20068;-83
2022/11/12 08:26:50;;;;;;;11.80;10.60;;;;;;;;;;5267776;28;20371;-82
2022/11/12 08:29:24;;;;;;;13.00;9.73;;;;;;;;;;5285722;28;20268;-82
2022/11/12 08:31:55;;;;;;;14.60;9.98;;;;;;;;;;5286356;28;20268;-83
2022/11/12 08:34:26;;;;;;;12.93;10.63;;;;;;;;;;5285818;28;20075;-83
2022/11/12 08:36:57;;;;;;;12.13;10.40;;;;;;;;;;5286630;28;20299;-82
2022/11/12 08:39:29;;;;;;;14.02;10.07;;;;;;;;;;5286710;28;20037;-83
2022/11/12 08:42:00;;;;;;;13.83;10.03;;;;;;;;;;5290618;28;20021;-84
2022/11/12 08:44:31;;;;;;;15.50;10.80;;;;;;;;;;5262088;28;20269;-81
2022/11/12 08:47:02;;;;;;;11.63;9.75;;;;;;;;;;5268642;28;20761;-83
2022/11/12 08:49:34;;;;;;;11.27;9.95;;;;;;;;;;5269093;28;20022;-82
2022/11/12 08:52:05;;;;;;;15.20;10.50;;;;;;;;;;5268986;28;20105;-83
2022/11/12 08:54:36;;;;;;;15.10;9.90;;;;;;;;;;5268224;28;20029;-82
2022/11/12 08:57:07;;;;;;;16.17;10.77;;;;;;;;;;5269607;28;20621;-83
2022/11/12 08:59:38;;;;;;;15.60;10.82;;;;;;;;;;5250276;28;20075;-82
2022/11/12 09:02:11;;;;;;;17.17;12.03;;;;;;;;;;5266425;28;20021;-83
2022/11/12 09:04:43;;;;;;;19.08;12.63;;;;;;;;;;5264388;28;20272;-82
2022/11/12 09:07:14;;;;;;;16.58;10.88;;;;;;;;;;5266202;28;20076;-82
2022/11/12 09:09:45;;;;;;;13.87;10.60;;;;;;;;;;5264880;28;20030;-83
2022/11/12 09:12:18;;;;;;;15.40;9.75;;;;;;;;;;5263716;28;20263;-83
2022/11/12 09:14:49;;;;;;;10.85;9.55;;;;;;;;;;5264601;28;20072;-82
2022/11/12 09:17:20;;;;;;;11.50;9.40;;;;;;;;;;5263974;28;20025;-81
2022/11/12 09:19:52;;;;;;;16.92;9.68;;;;;;;;;;5264143;28;20244;-82
2022/11/12 09:22:23;;;;;;;15.23;9.85;;;;;;;;;;5263877;28;20018;-82
2022/11/12 09:24:54;;;;;;;13.32;9.13;;;;;;;;;;5264146;28;20088;-84
2022/11/12 09:27:26;;;;;;;12.68;9.35;;;;;;;;;;5246267;28;20032;-84
2022/11/12 09:29:57;;;;;;;15.50;10.02;;;;;;;;;;5266275;28;20028;-82
2022/11/12 09:32:28;;;;;;;14.97;9.97;;;;;;;;;;5263609;28;20032;-82
2022/11/12 09:34:59;;;;;;;12.65;9.88;;;;;;;;;;5277630;28;20307;-82
2022/11/12 09:37:30;;;;;;;10.57;8.90;;;;;;;;;;5285349;28;20600;-82
2022/11/12 09:40:02;;;;;;;14.48;8.63;;;;;;;;;;5286394;28;20086;-82
2022/11/12 09:42:35;;;;;;;10.15;8.18;;;;;;;;;;5266778;28;20036;-82
2022/11/12 09:45:10;;;;;;;13.10;9.02;;;;;;;;;;5285536;28;20112;-83
2022/11/12 09:47:44;;;;;;;13.43;8.13;;;;;;;;;;5284686;28;20056;-83
2022/11/12 09:50:21;;;;;;;10.80;7.90;;;;;;;;;;5284928;28;21004;-83
2022/11/12 09:52:56;;;;;;;11.10;8.68;;;;;;;;;;5284858;28;20029;-83
2022/11/12 09:55:30;;;;;;;10.32;7.75;;;;;;;;;;5283387;28;20385;-83
2022/11/12 09:58:01;;;;;;;10.63;8.30;;;;;;;;;;5284440;28;20025;-83
2022/11/12 10:00:32;;;;;;;11.00;7.70;;;;;;;;;;5284278;28;20025;-83
2022/11/12 10:03:13;;;;;;;11.68;7.43;;;;;;;;;;5283196;28;20064;-83
2022/11/12 10:05:44;;;;;;;9.02;6.47;;;;;;;;;;5283248;28;20025;-83
2022/11/12 10:08:24;;;;;;;8.60;6.60;;;;;;;;;;5283488;28;20044;-83
2022/11/12 10:10:55;;;;;;;13.55;6.95;;;;;;;;;;5283976;28;20025;-84
2022/11/12 10:13:37;;;;;;;8.45;6.40;;;;;;;;;;5284261;28;20091;-83
2022/11/12 10:16:43;;;;;;;8.63;6.30;;;;;;;;;;5284159;28;20021;-84
2022/11/12 10:19:14;;;;;;;10.07;6.22;;;;;;;;;;5283814;28;20060;-84
2022/11/12 10:21:58;;;;;;;8.03;5.70;;;;;;;;;;5283409;28;20114;-83
2022/11/12 10:24:33;;;;;;;9.57;5.35;;;;;;;;;;5283339;28;20036;-84
2022/11/12 10:27:30;;;;;;;10.13;5.13;;;;;;;;;;5283337;28;20029;-82
2022/11/12 10:30:03;;;;;;;6.80;4.88;;;;;;;;;;5261323;28;20065;-83
2022/11/12 10:32:35;;;;;;;10.32;5.13;;;;;;;;;;5265481;28;20048;-82
2022/11/12 10:35:06;;;;;;;6.78;4.93;;;;;;;;;;5283524;28;20025;-82
2022/11/12 10:37:41;;;;;;;6.38;4.78;;;;;;;;;;5265907;28;20056;-82
2022/11/12 10:40:30;;;;;;;8.25;5.15;;;;;;;;;;5282920;28;20029;-82
2022/11/12 10:43:03;;;;;;;9.13;4.80;;;;;;;;;;5283105;28;20366;-82
2022/11/12 10:45:35;;;;;;;10.35;4.90;;;;;;;;;;5265438;28;20024;-82
2022/11/12 10:48:23;;;;;;;8.90;4.90;;;;;;;;;;5283223;28;20103;-82
2022/11/12 10:50:54;;;;;;;6.10;4.97;;;;;;;;;;5282602;28;20282;-82
2022/11/12 10:53:30;;;;;;;6.60;5.72;;;;;;;;;;5264855;28;20021;-82
2022/11/12 10:56:03;;;;;;;7.97;5.47;;;;;;;;;;5282835;28;20032;-82
2022/11/12 10:58:34;;;;;;;9.80;6.13;;;;;;;;;;5265191;28;20343;-82
2022/11/12 11:01:15;;;;;;;8.20;5.97;;;;;;;;;;5283171;28;20035;-82
2022/11/12 11:03:49;;;;;;;6.97;5.18;;;;;;;;;;5283075;28;20045;-82
2022/11/12 11:06:22;;;;;;;5.82;4.40;;;;;;;;;;5283183;28;20047;-82
2022/11/12 11:09:12;;;;;;;7.88;4.90;;;;;;;;;;5283529;28;20071;-82
2022/11/12 11:11:47;;;;;;;7.40;5.15;;;;;;;;;;5282104;28;20485;-82
2022/11/12 11:14:22;;;;;;;6.18;5.15;;;;;;;;;;5264491;28;20113;-83
2022/11/12 11:17:00;;;;;;;6.22;4.72;;;;;;;;;;5286666;28;20033;-83
2022/11/12 11:19:39;;;;;;;7.18;4.70;;;;;;;;;;5268676;28;20017;-82
2022/11/12 11:22:13;;;;;;;7.18;5.03;;;;;;;;;;5287200;28;20373;-82
2022/11/12 11:24:56;;;;;;;7.68;4.90;;;;;;;;;;5269800;28;20086;-82
2022/11/12 11:27:34;;;;;;;5.55;4.85;;;;;;;;;;5285736;28;20121;-82
2022/11/12 11:30:18;;;;;;;5.32;4.13;;;;;;;;;;5270267;28;20033;-82
2022/11/12 11:32:52;;;;;;;4.40;4.00;;;;;;;;;;5288455;28;20025;-82
2022/11/12 11:35:27;;;;;;;7.93;4.88;;;;;;;;;;5288605;28;20780;-83
2022/11/12 11:38:09;;;;;;;5.35;4.15;;;;;;;;;;5286612;28;20036;-82
2022/11/12 11:40:46;;;;;;;5.70;4.20;;;;;;;;;;5268206;28;20159;-82
2022/11/12 11:43:17;;;;;;;5.45;3.80;;;;;;;;;;5264013;28;20371;-82
2022/11/12 11:46:03;;;;;;;5.43;3.70;;;;;;;;;;5267213;28;20041;-82
2022/11/12 11:48:34;;;;;;;4.63;3.55;;;;;;;;;;5265131;28;20053;-83
2022/11/12 11:51:22;;;;;;;4.53;4.13;;;;;;;;;;5248096;28;20489;-82
2022/11/12 11:54:09;;;;;;;5.00;4.03;;;;;;;;;;5266992;28;20575;-82
2022/11/12 11:56:41;;;;;;;4.60;3.10;;;;;;;;;;5249233;28;20017;-83
2022/11/12 11:59:21;;;;;;;5.03;3.60;;;;;;;;;;5269255;28;20033;-83
2022/11/12 12:02:04;;;;;;;3.13;2.63;;;;;;;;;;5286496;28;20017;-83
2022/11/12 12:04:48;;;;;;;7.35;3.60;;;;;;;;;;5286747;28;20041;-83
2022/11/12 12:07:38;;;;;;;4.47;3.20;;;;;;;;;;5287225;28;20021;-83
2022/11/12 12:10:18;;;;;;;3.15;2.75;;;;;;;;;;5285713;28;20025;-83
2022/11/12 12:12:59;;;;;;;3.92;3.17;;;;;;;;;;5267098;28;20037;-82
2022/11/12 12:15:35;;;;;;;3.35;3.00;;;;;;;;;;5285853;28;20025;-82
2022/11/12 12:18:39;;;;;;;4.03;3.28;;;;;;;;;;5286263;28;20032;-82
2022/11/12 12:21:17;;;;;;;6.40;3.72;;;;;;;;;;5250833;28;20108;-82
2022/11/12 12:24:04;;;;;;;5.32;3.63;;;;;;;;;;5285069;28;20037;-82
2022/11/12 12:26:47;;;;;;;4.32;3.40;;;;;;;;;;5265774;28;20029;-82
2022/11/12 12:29:21;;;;;;;5.68;3.92;;;;;;;;;;5285322;28;20507;-82
2022/11/12 12:32:00;;;;;;;3.97;3.45;;;;;;;;;;5285335;28;20021;-82
2022/11/12 12:34:33;;;;;;;4.93;3.55;;;;;;;;;;5264200;28;20104;-82
2022/11/12 12:37:15;;;;;;;5.15;3.50;;;;;;;;;;5264906;28;20018;-82
2022/11/12 12:40:06;;;;;;;4.70;3.95;;;;;;;;;;5247028;28;20021;-82
2022/11/12 12:42:57;;;;;;;5.07;3.47;;;;;;;;;;5265071;28;20497;-82
2022/11/12 12:45:37;;;;;;;5.88;3.78;;;;;;;;;;5262613;28;20041;-82
2022/11/12 12:48:31;;;;;;;5.25;3.65;;;;;;;;;;5263783;28;20111;-82
2022/11/12 12:51:03;;;;;;;4.07;3.53;;;;;;;;;;5255337;28;20055;-82
2022/11/12 12:53:35;;;;;;;3.60;3.30;;;;;;;;;;5264136;28;20026;-83
2022/11/12 12:56:26;;;;;;;3.60;3.30;;;;;;;;;;5264320;28;20280;-82
2022/11/12 12:59:02;;;;;;;10.52;3.78;;;;;;;;;;5263867;28;20030;-82
2022/11/12 13:01:35;;;;;;;6.70;4.05;;;;;;;;;;5262218;28;20397;-83
2022/11/12 13:04:10;;;;;;;4.53;3.72;;;;;;;;;;5266180;28;20025;-82
2022/11/12 13:06:44;;;;;;;6.88;5.10;;;;;;;;;;5245661;28;20061;-82
2022/11/12 13:09:16;;;;;;;6.03;5.03;;;;;;;;;;5263914;28;20088;-82
2022/11/12 13:14:34;;;;;;;5.40;4.47;;;;;;;;;;5262968;28;20044;-82
2022/11/12 13:17:05;;;;;;;6.57;4.27;;;;;;;;;;5263769;28;20021;-82
2022/11/12 13:19:38;;;;;;;4.27;3.87;;;;;;;;;;5263657;28;20397;-82
2022/11/12 13:22:18;;;;;;;5.75;4.00;;;;;;;;;;5262244;28;20029;-82
2022/11/12 13:24:59;;;;;;;9.50;4.78;;;;;;;;;;5263943;28;20541;-82
2022/11/12 13:27:43;;;;;;;7.30;5.00;;;;;;;;;;5263906;28;20045;-82
2022/11/12 13:30:17;;;;;;;6.50;4.82;;;;;;;;;;5263409;28;20056;-82
2022/11/12 13:32:48;;;;;;;6.63;5.45;;;;;;;;;;5262697;28;20025;-82
2022/11/12 13:35:19;;;;;;;9.18;5.20;;;;;;;;;;5263140;28;20032;-82
2022/11/12 13:38:12;;;;;;;5.65;5.10;;;;;;;;;;5263516;28;20029;-82
2022/11/12 13:40:44;;;;;;;8.60;6.15;;;;;;;;;;5263319;28;20030;-82
2022/11/12 13:43:34;;;;;;;8.70;5.65;;;;;;;;;;5263426;28;20017;-82
2022/11/12 13:46:06;;;;;;;8.70;6.90;;;;;;;;;;5261544;28;20071;-82
2022/11/12 13:48:43;;;;;;;8.37;6.23;;;;;;;;;;5261869;28;20077;-82
2022/11/12 13:51:33;;;;;;;9.70;7.88;;;;;;;;;;5262713;28;20028;-82
2022/11/12 13:54:22;;;;;;;6.85;6.03;;;;;;;;;;5266582;28;20393;-82
2022/11/12 13:56:54;;;;;;;7.25;6.53;;;;;;;;;;5284082;28;20032;-82
2022/11/12 13:59:25;;;;;;;8.03;6.63;;;;;;;;;;5284184;28;20020;-82
2022/11/12 14:02:01;;;;;;;8.07;7.27;;;;;;;;;;5284178;28;20036;-82
2022/11/12 14:04:33;;;;;;;10.73;7.28;;;;;;;;;;5265337;28;20049;-82
2022/11/12 14:07:23;;;;;;;8.32;7.05;;;;;;;;;;5284175;28;20074;-82
2022/11/12 14:10:13;;;;;;;12.27;8.23;;;;;;;;;;5284160;28;20060;-82
2022/11/12 14:12:54;;;;;;;11.52;8.30;;;;;;;;;;5265271;28;20032;-82
2022/11/12 14:15:49;;;;;;;8.10;7.28;;;;;;;;;;5284356;28;20108;-82
2022/11/12 14:18:39;;;;;;;9.07;7.40;;;;;;;;;;5265561;28;20025;-82
2022/11/12 14:21:17;;;;;;;9.85;7.43;;;;;;;;;;5284061;28;20021;-82
2022/11/12 14:23:48;;;;;;;11.18;7.60;;;;;;;;;;5265421;28;20108;-82
2022/11/12 14:26:42;;;;;;;9.65;7.45;;;;;;;;;;5283443;28;20154;-82
2022/11/12 14:29:17;;;;;;;8.45;7.57;;;;;;;;;;5265541;28;20051;-82
2022/11/12 14:31:58;;;;;;;9.63;7.70;;;;;;;;;;5268602;28;20386;-82
2022/11/12 14:34:33;;;;;;;10.10;7.45;;;;;;;;;;5262412;28;20033;-82
2022/11/12 14:37:04;;;;;;;12.30;8.23;;;;;;;;;;5262575;28;20022;-82
2022/11/12 14:39:39;;;;;;;11.83;7.97;;;;;;;;;;5261553;28;20791;-82
2022/11/12 14:42:12;;;;;;;10.68;7.65;;;;;;;;;;5262307;28;20261;-82
2022/11/12 14:44:43;;;;;;;12.52;7.78;;;;;;;;;;5262977;28;20030;-82
2022/11/12 14:47:16;;;;;;;9.27;7.77;;;;;;;;;;5261932;28;20068;-82
2022/11/12 14:49:48;;;;;;;11.55;7.97;;;;;;;;;;5261072;28;20355;-82
2022/11/12 14:52:28;;;;;;;19.90;9.23;;;;;;;;;;5244351;28;20134;-82
2022/11/12 14:55:04;;;;;;;10.00;8.93;;;;;;;;;;5260901;28;20109;-82
2022/11/12 14:57:36;;;;;;;10.07;9.05;;;;;;;;;;5262754;28;20037;-83
2022/11/12 15:00:19;;;;;;;11.30;9.45;;;;;;;;;;5267892;28;20013;-82
2022/11/12 15:02:50;;;;;;;14.18;9.57;;;;;;;;;;5265019;28;20516;-83
2022/11/12 15:05:26;;;;;;;13.70;10.00;;;;;;;;;;5265262;28;20033;-83
2022/11/12 15:08:04;;;;;;;18.45;11.93;;;;;;;;;;5283099;28;20063;-83
2022/11/12 15:10:37;;;;;;;14.95;9.88;;;;;;;;;;5264825;28;20143;-83
2022/11/12 15:13:10;;;;;;;14.52;10.18;;;;;;;;;;5284234;28;20032;-84
2022/11/12 15:15:55;;;;;;;13.88;10.10;;;;;;;;;;5265396;28;20139;-82
2022/11/12 15:18:27;;;;;;;11.85;9.82;;;;;;;;;;5264885;28;20096;-82
2022/11/12 15:21:09;;;;;;;17.08;10.80;;;;;;;;;;5283686;28;20044;-81
2022/11/12 15:23:51;;;;;;;15.50;11.85;;;;;;;;;;5262129;28;20562;-82
2022/11/12 15:26:24;;;;;;;17.27;11.65;;;;;;;;;;5259914;28;20426;-82
2022/11/12 15:29:11;;;;;;;16.83;12.43;;;;;;;;;;5261040;28;20478;-81